METAR Data
IDs: Format: Raw Decoded Include TAF

Data at: 2115 UTC 19 May 2019

KMCW 192053Z AUTO 30014KT 10SM OVC018 10/08 A2977 RMK AO2 SLP078 T01000078 51029 TSNO
KMCW 191953Z AUTO 30009KT 10SM OVC016 09/07 A2975 RMK AO2 SLP073 T00940072 TSNO
KMCW 191853Z AUTO 33012KT 10SM BKN017 OVC025 11/08 A2971 RMK AO2 SLP057 T01060078 TSNO
KMCW 191753Z AUTO 33012G23KT 10SM BKN017 OVC024 12/08 A2968 RMK AO2 SLP046 60000 T01170083 10117 20078 51023 TSNO
KMCW 191653Z AUTO 33013KT 10SM BKN016 OVC022 09/07 A2968 RMK AO2 SLP045 T00940072 TSNO
KMCW 191553Z AUTO 33014KT 10SM OVC015 09/07 A2965 RMK AO2 SLP036 T00940072 TSNO
KMCW 191453Z AUTO 33015KT 10SM SCT009 OVC014 09/07 A2961 RMK AO2 RAB15E37 SLP021 P0000 60000 T00890072 51014 TSNO
KMCW 191434Z AUTO 34016G22KT 8SM -RA BKN009 OVC014 08/07 A2960 RMK AO2 RAB15 P0000 T00830072 TSNO
KMCW 191353Z AUTO 33017G23KT 10SM OVC013 08/07 A2960 RMK AO2 RAB15E31 SLP018 P0000 T00830067 TSNO
KMCW 191253Z AUTO 33012KT 10SM OVC011 08/07 A2959 RMK AO2 RAE27 SLP016 P0000 T00830067 TSNO
KMCW 191236Z AUTO 33014KT 10SM OVC009 08/07 A2959 RMK AO2 RAE27 CIG 008V012 P0000 T00830072 TSNO
KMCW 191153Z AUTO 35012G21KT 10SM -RA OVC010 08/07 A2956 RMK AO2 SLP005 P0001 60030 70113 T00780072 10122 20078 53005 TSNO
KMCW 191138Z AUTO 35013KT 10SM -RA OVC010 08/07 A2955 RMK AO2 P0001 T00780072 TSNO
KMCW 191053Z AUTO 36014KT 8SM -RA BKN009 BKN026 OVC055 08/07 A2954 RMK AO2 SLP995 P0001 T00780072 TSNO
KMCW 191045Z AUTO 36015G24KT 8SM -RA SCT009 BKN024 OVC070 08/08 A2954 RMK AO2 P0001 T00830078 TSNO
KMCW 191008Z AUTO 01013G23KT 6SM -RA BR BKN007 BKN012 OVC023 08/08 A2955 RMK AO2 P0000 T00830078 TSNO
KMCW 190953Z AUTO 01016KT 5SM -RA BR SCT007 BKN024 OVC043 08/08 A2954 RMK AO2 SLP995 P0004 T00830078 TSNO
KMCW 190943Z AUTO 01014G24KT 4SM -RA BR SCT007 BKN025 OVC042 08/08 A2954 RMK AO2 P0004 T00830078 TSNO
KMCW 190908Z AUTO 36015KT 7SM -RA BKN006 BKN022 OVC032 09/08 A2956 RMK AO2 P0001 T00890083 TSNO
KMCW 190853Z AUTO 01018KT 6SM -RA BR FEW006 BKN024 OVC033 09/08 A2955 RMK AO2 SLP999 P0009 60024 T00890083 55005 TSNO
KMCW 190829Z AUTO 01017KT 3SM RA BR FEW006 BKN026 OVC033 09/09 A2954 RMK AO2 P0008 T00890089 TSNO
KMCW 190825Z AUTO 01017KT 2 1/2SM RA BR SCT026 OVC033 09/09 A2955 RMK AO2 P0007 T00890089 TSNO
KMCW 190753Z AUTO 36020KT 8SM -RA FEW007 FEW016 OVC034 09/09 A2955 RMK AO2 SLP998 P0008 T00940089 TSNO
KMCW 190748Z AUTO 36017KT 8SM -RA FEW005 OVC032 09/09 A2955 RMK AO2 P0008 TSNO
KMCW 190741Z AUTO 36017G24KT 8SM -RA SCT005 BKN024 OVC030 09/09 A2955 RMK AO2 P0008 T00940094 TSNO
KMCW 190653Z AUTO 02017KT 4SM -RA BR BKN007 OVC010 11/11 A2956 RMK AO2 CIG 004V009 SLP003 P0007 T01060106 TSNO
KMCW 190553Z AUTO 05013KT 3SM RA BR OVC005 12/12 A2956 RMK AO2 SLP001 P0020 60083 T01220117 10228 20117 402610094 58015 TSNO
KMCW 190545Z AUTO 03015KT 2 1/2SM +RA BR BKN005 OVC010 12/12 A2955 RMK AO2 P0018 T01220117 TSNO
KMCW 190517Z AUTO 04013KT 3SM RA BR OVC005 13/13 A2957 RMK AO2 P0008 T01280128 TSNO
KMCW 190506Z AUTO 04013KT 2 1/2SM +RA BR OVC005 13/13 A2957 RMK AO2 P0006 T01330133 TSNO
KMCW 190453Z AUTO 04014KT 4SM RA BR OVC003 14/14 A2958 RMK AO2 CIG 003V008 SLP009 P0008 T01390139 TSNO
KMCW 190353Z AUTO 36011KT 4SM -RA BR BKN003 OVC037 15/15 A2960 RMK AO2 SLP016 P0006 T01500150 TSNO
KMCW 190351Z AUTO 36010KT 4SM -RA BR BKN003 OVC037 16/16 A2960 RMK AO2 P0006 TSNO
KMCW 190305Z AUTO 03006KT 5SM -RA BR FEW004 BKN070 OVC090 16/16 A2963 RMK AO2 P0001 T01610156 TSNO
KMCW 190253Z AUTO 03008KT 6SM -RA BR OVC090 16/16 A2962 RMK AO2 SLP024 P0010 60049 T01610161 50014 TSNO
KMCW 190153Z AUTO 15004KT 6SM -RA BR BKN080 OVC090 16/16 A2964 RMK AO2 PK WND 21027/0100 SLP032 P0021 T01610161 TSNO
KMCW 190122Z AUTO 22014KT 5SM RA BR SCT045 OVC080 17/16 A2962 RMK AO2 PK WND 21027/0100 P0015 T01670161 TSNO
KMCW 190102Z AUTO 20019G27KT 2SM +RA BR BKN032 BKN043 OVC080 17/16 A2962 RMK AO2 PK WND 21027/0100 P0007 T01670161 TSNO
KMCW 190053Z AUTO 20019G30KT 3/4SM +RA BR FEW030 BKN043 OVC060 17/17 A2963 RMK AO2 PK WND 17034/0030 RAB16 SLP026 P0018 T01720167 TSNO
KMCW 190047Z AUTO 19019G30KT 1 1/2SM RA BR FEW033 BKN045 OVC075 17/16 A2962 RMK AO2 PK WND 17034/0030 RAB16 P0009 TSNO
KMCW 182353Z AUTO 21008KT 10SM FEW055 BKN090 OVC110 23/18 A2958 RMK AO2 SLP008 T02280178 10261 20222 56010 TSNO
KMCW 182253Z AUTO 24012KT 10SM FEW046 SCT070 BKN085 24/17 A2959 RMK AO2 SLP011 T02440167 TSNO
KMCW 182153Z AUTO 24009KT 10SM SCT080 25/16 A2959 RMK AO2 SLP013 T02500156 TSNO
KMCW 182053Z AUTO VRB03KT 10SM FEW060 SCT080 BKN120 24/21 A2961 RMK AO2 SLP018 T02440206 55000 TSNO
KMCW 181953Z AUTO 09007KT 10SM FEW050 BKN065 24/21 A2960 RMK AO2 SLP016 T02390211 TSNO
KMCW 181853Z AUTO 08011G15KT 10SM CLR 24/22 A2961 RMK AO2 SLP018 T02390217 TSNO
KMCW 181753Z AUTO 06008KT 10SM SCT023 22/19 A2961 RMK AO2 SLP018 T02220194 10222 20094 53002 TSNO
KMCW 181701Z AUTO 02009KT 10SM BKN020 21/19 A2963 RMK AO2 T02060194
KMCW 181653Z AUTO 11005KT 10SM SCT018 20/17 A2963 RMK AO2 SLP025 T02000172
KMCW 181453Z AUTO 16014G25KT 10SM CLR 15/14 A2960 RMK AO2 PK WND 14026/1359 SLP020 T01500139 58024
KMCW 181353Z AUTO 14016G23KT 10SM FEW120 12/11 A2963 RMK AO2 SLP029 T01220111
KMCW 181253Z AUTO 14014G22KT 10SM SCT095 11/09 A2967 RMK AO2 SLP043 T01060089
KMCW 181153Z AUTO 14016KT 10SM CLR 09/08 A2968 RMK AO2 RAE1057 SLP047 P0000 60000 70076 T00940078 10117 20094 55012
KMCW 181053Z AUTO 13015G23KT 10SM -RA FEW037 BKN060 OVC085 09/07 A2967 RMK AO2 PK WND 12026/1010 LTG DSNT NE RAB35 SLP045 P0000 T00940072
KMCW 180953Z AUTO 13015G23KT 10SM BKN065 OVC075 10/09 A2968 RMK AO2 SLP047 T01000089